createdAt,value
2022-10-14T00:01:25.873Z,8.73
2022-10-14T00:03:54.990Z,10.32
2022-10-14T00:06:25.864Z,8.10
2022-10-14T00:08:54.283Z,9.55
2022-10-14T00:11:25.163Z,9.02
2022-10-14T00:14:21.713Z,8.20
2022-10-14T00:16:54.113Z,8.45
2022-10-14T00:19:21.968Z,9.63
2022-10-14T00:21:51.584Z,9.73
2022-10-14T00:24:19.663Z,8.63
2022-10-14T00:26:47.256Z,8.95
2022-10-14T00:29:19.547Z,8.73
2022-10-14T00:31:48.600Z,9.32
2022-10-14T00:34:18.674Z,10.35
2022-10-14T00:36:46.397Z,9.52
2022-10-14T00:39:19.624Z,8.77
2022-10-14T00:41:47.705Z,9.48
2022-10-14T00:44:15.330Z,10.02
2022-10-14T00:46:46.176Z,10.85
2022-10-14T00:49:18.882Z,9.50
2022-10-14T00:51:57.023Z,9.23
2022-10-14T00:54:35.316Z,9.55
2022-10-14T00:57:04.001Z,8.95
2022-10-14T00:59:33.758Z,9.23
2022-10-14T01:02:03.382Z,9.40
2022-10-14T01:04:31.670Z,10.18
2022-10-14T01:07:13.224Z,11.18
2022-10-14T01:09:49.069Z,10.88
2022-10-14T01:12:30.260Z,9.90
2022-10-14T01:15:38.843Z,8.57
2022-10-14T01:18:21.571Z,9.85
2022-10-14T01:21:09.837Z,9.40
2022-10-14T01:24:06.765Z,10.00
2022-10-14T01:26:52.480Z,10.15
2022-10-14T01:29:45.877Z,9.40
2022-10-14T01:32:21.961Z,8.75
2022-10-14T01:35:03.888Z,11.05
2022-10-14T01:37:37.307Z,9.68
2022-10-14T01:40:16.038Z,9.98
2022-10-14T01:42:53.577Z,10.38
2022-10-14T01:45:23.503Z,10.68
2022-10-14T01:47:53.938Z,11.38
2022-10-14T01:50:25.186Z,10.10
2022-10-14T01:52:59.723Z,9.93
2022-10-14T01:55:33.107Z,10.13
2022-10-14T01:58:04.105Z,9.45
2022-10-14T02:00:32.173Z,10.32
2022-10-14T02:03:02.904Z,11.18
2022-10-14T02:05:46.339Z,11.30
2022-10-14T02:08:36.776Z,10.23
2022-10-14T02:11:15.932Z,10.80
2022-10-14T02:14:02.207Z,10.90
2022-10-14T02:16:56.862Z,11.38
2022-10-14T02:19:33.774Z,11.50
2022-10-14T02:22:10.382Z,10.45
2022-10-14T02:24:45.925Z,10.45
2022-10-14T02:27:20.324Z,11.13
2022-10-14T02:29:50.261Z,10.20
2022-10-14T02:32:20.990Z,11.30
2022-10-14T02:34:54.268Z,11.38
2022-10-14T02:37:23.816Z,10.25
2022-10-14T02:40:03.103Z,10.88
2022-10-14T02:42:37.952Z,10.32
2022-10-14T02:45:07.920Z,9.85
2022-10-14T02:47:36.098Z,9.17
2022-10-14T02:50:04.714Z,10.18
2022-10-14T02:52:32.858Z,10.93
2022-10-14T02:55:00.538Z,11.30
2022-10-14T02:57:28.211Z,11.30
2022-10-14T02:59:57.933Z,11.27
2022-10-14T03:02:27.650Z,11.43
2022-10-14T03:04:58.393Z,12.30
2022-10-14T03:07:26.549Z,12.75
2022-10-14T03:09:57.448Z,13.02
2022-10-14T03:12:26.332Z,13.18
2022-10-14T03:14:56.760Z,14.40
2022-10-14T03:17:27.096Z,12.93
2022-10-14T03:20:01.138Z,14.93
2022-10-14T03:22:30.559Z,14.95
2022-10-14T03:25:01.306Z,14.53
2022-10-14T03:27:40.007Z,14.85
2022-10-14T03:30:12.165Z,13.50
2022-10-14T03:32:51.474Z,14.00
2022-10-14T03:35:40.451Z,13.27
2022-10-14T03:38:12.609Z,13.40
2022-10-14T03:40:43.248Z,14.45
2022-10-14T03:43:13.300Z,13.30
2022-10-14T03:45:50.481Z,13.60
2022-10-14T03:48:20.892Z,13.05
2022-10-14T03:50:49.296Z,13.50
2022-10-14T03:53:19.674Z,14.10
2022-10-14T03:55:48.171Z,13.15
2022-10-14T03:58:16.156Z,15.13
2022-10-14T04:00:50.850Z,14.40
2022-10-14T04:03:42.299Z,14.13
2022-10-14T04:06:15.002Z,15.25
2022-10-14T04:08:45.124Z,14.88
2022-10-14T04:11:24.193Z,15.73
2022-10-14T04:14:01.097Z,15.00
2022-10-14T04:16:31.666Z,15.50
2022-10-14T04:19:15.286Z,17.52
2022-10-14T04:21:43.279Z,16.80
2022-10-14T04:24:16.626Z,16.27
2022-10-14T04:26:52.888Z,15.75
2022-10-14T04:29:33.133Z,16.75
2022-10-14T04:32:07.348Z,16.80
2022-10-14T04:34:41.256Z,17.30
2022-10-14T04:37:11.649Z,15.82
2022-10-14T04:40:08.822Z,16.83
2022-10-14T04:42:43.107Z,17.85
2022-10-14T04:45:20.181Z,14.75
2022-10-14T04:47:55.033Z,17.67
2022-10-14T04:50:26.172Z,17.48
2022-10-14T04:53:29.120Z,17.23
2022-10-14T04:56:07.959Z,15.38
2022-10-14T04:58:43.515Z,16.50
2022-10-14T05:01:11.221Z,15.50
2022-10-14T05:03:41.802Z,17.02
2022-10-14T05:06:13.896Z,16.48
2022-10-14T05:08:45.218Z,14.90
2022-10-14T05:11:17.419Z,15.55
2022-10-14T05:13:53.943Z,16.10
2022-10-14T05:16:23.699Z,14.70
2022-10-14T05:18:54.539Z,15.30
2022-10-14T05:21:23.748Z,14.52
2022-10-14T05:24:20.428Z,14.55
2022-10-14T05:26:48.482Z,13.95
2022-10-14T05:29:16.741Z,15.13
2022-10-14T05:31:44.946Z,14.32
2022-10-14T05:34:34.057Z,12.50
2022-10-14T05:37:02.932Z,12.63
2022-10-14T05:39:38.515Z,13.20
2022-10-14T05:42:06.367Z,13.05
2022-10-14T05:44:37.156Z,13.15
2022-10-14T05:47:05.708Z,12.95
2022-10-14T05:49:34.962Z,12.30
2022-10-14T05:52:05.368Z,13.05
2022-10-14T05:54:34.216Z,12.15
2022-10-14T05:57:04.407Z,13.50
2022-10-14T05:59:34.847Z,13.85
2022-10-14T06:02:03.266Z,12.05
2022-10-14T06:04:31.222Z,13.77
2022-10-14T06:06:59.455Z,12.43
2022-10-14T06:09:27.220Z,11.82
2022-10-14T06:11:55.014Z,12.13
2022-10-14T06:14:23.463Z,12.70
2022-10-14T06:16:52.713Z,12.00
2022-10-14T06:19:20.596Z,12.73
2022-10-14T06:21:48.408Z,13.48
2022-10-14T06:24:16.789Z,12.40
2022-10-14T06:26:48.949Z,14.77
2022-10-14T06:29:18.585Z,13.02
2022-10-14T06:31:46.295Z,11.85
2022-10-14T06:34:14.240Z,12.60
2022-10-14T06:36:42.183Z,13.05
2022-10-14T06:39:10.961Z,11.43
2022-10-14T06:41:38.727Z,12.27
2022-10-14T06:44:06.637Z,10.50
2022-10-14T06:46:34.365Z,10.43
2022-10-14T06:49:02.118Z,10.52
2022-10-14T06:51:35.943Z,11.50
2022-10-14T06:54:04.108Z,11.15
2022-10-14T06:56:31.965Z,11.20
2022-10-14T06:59:01.828Z,9.23
2022-10-14T07:01:30.645Z,10.73
2022-10-14T07:03:58.491Z,10.57
2022-10-14T07:06:26.547Z,10.27
2022-10-14T07:09:08.905Z,10.50
2022-10-14T07:11:36.601Z,10.93
2022-10-14T07:14:04.367Z,10.40
2022-10-14T07:16:37.028Z,8.57
2022-10-14T07:19:04.945Z,9.07
2022-10-14T07:21:35.809Z,9.95
2022-10-14T07:24:06.468Z,9.75
2022-10-14T07:26:34.246Z,10.40
2022-10-14T07:29:06.878Z,9.88
2022-10-14T07:31:35.113Z,9.95
2022-10-14T07:34:06.678Z,10.20
2022-10-14T07:36:34.845Z,9.48
2022-10-14T07:39:05.865Z,10.38
2022-10-14T07:41:34.686Z,9.65
2022-10-14T07:44:08.580Z,9.00
2022-10-14T07:46:39.318Z,10.45
2022-10-14T07:51:47.388Z,10.75
2022-10-14T07:56:49.014Z,8.20
2022-10-14T07:59:18.854Z,7.43
2022-10-14T08:01:53.597Z,7.30
2022-10-14T08:04:21.381Z,7.65
2022-10-14T08:06:49.201Z,5.90
2022-10-14T08:09:18.578Z,6.72
2022-10-14T08:11:46.790Z,5.80
2022-10-14T08:14:14.712Z,5.78
2022-10-14T08:16:42.508Z,5.20
2022-10-14T08:19:14.667Z,5.63
2022-10-14T08:21:43.720Z,5.05
2022-10-14T08:24:11.696Z,5.50
2022-10-14T08:26:48.972Z,5.40
2022-10-14T08:29:17.085Z,4.85
2022-10-14T08:31:44.677Z,5.05
2022-10-14T08:34:12.407Z,3.65
2022-10-14T08:36:44.100Z,3.70
2022-10-14T08:39:16.876Z,3.78
2022-10-14T08:42:06.782Z,3.80
2022-10-14T08:44:49.852Z,3.80
2022-10-14T08:47:23.825Z,2.70
2022-10-14T08:50:01.649Z,3.88
2022-10-14T08:52:55.860Z,3.60
2022-10-14T08:55:35.486Z,4.63
2022-10-14T08:58:41.594Z,3.83
2022-10-14T09:01:22.360Z,3.55
2022-10-14T09:06:26.747Z,3.28
2022-10-14T09:08:58.676Z,3.70
2022-10-14T09:11:30.787Z,4.22
2022-10-14T09:14:02.827Z,3.33
2022-10-14T09:16:35.800Z,3.78
2022-10-14T09:19:31.381Z,3.13
2022-10-14T09:22:00.534Z,2.65
2022-10-14T09:24:35.999Z,2.80
2022-10-14T09:27:05.935Z,3.33
2022-10-14T09:29:59.444Z,2.80
2022-10-14T09:32:32.944Z,2.65
2022-10-14T09:35:07.486Z,2.70
2022-10-14T09:37:37.264Z,2.97
2022-10-14T09:40:30.023Z,3.37
2022-10-14T09:43:09.075Z,2.95
2022-10-14T09:46:07.303Z,2.70
2022-10-14T09:48:45.052Z,2.45
2022-10-14T09:51:18.834Z,2.47
2022-10-14T09:53:51.980Z,2.42
2022-10-14T09:56:42.052Z,2.35
2022-10-14T09:59:28.900Z,2.97
2022-10-14T10:02:00.727Z,2.28
2022-10-14T10:04:42.101Z,1.98
2022-10-14T10:07:32.590Z,3.00
2022-10-14T10:12:35.794Z,2.25
2022-10-14T10:15:07.023Z,2.60
2022-10-14T10:17:40.629Z,2.60
2022-10-14T10:20:26.474Z,2.58
2022-10-14T10:22:56.650Z,2.42
2022-10-14T10:25:26.749Z,2.55
2022-10-14T10:28:00.368Z,3.63
2022-10-14T10:31:07.264Z,2.60
2022-10-14T10:33:49.425Z,2.60
2022-10-14T10:36:48.022Z,2.80
2022-10-14T10:39:54.881Z,3.03
2022-10-14T10:42:40.921Z,2.60
2022-10-14T10:45:37.089Z,2.55
2022-10-14T10:48:26.024Z,3.20
2022-10-14T10:51:23.820Z,2.90
2022-10-14T10:54:05.011Z,3.03
2022-10-14T10:56:42.889Z,4.10
2022-10-14T11:02:03.216Z,2.85
2022-10-14T11:04:37.514Z,3.22
2022-10-14T11:07:47.433Z,3.28
2022-10-14T11:10:42.839Z,3.88
2022-10-14T11:13:27.226Z,4.13
2022-10-14T11:16:34.386Z,3.35
2022-10-14T11:19:10.943Z,4.57
2022-10-14T11:22:06.320Z,4.32
2022-10-14T11:25:35.517Z,3.67
2022-10-14T11:28:52.737Z,3.85
2022-10-14T11:31:55.599Z,3.40
2022-10-14T11:34:47.360Z,3.38
2022-10-14T11:37:57.684Z,3.85
2022-10-14T11:40:56.277Z,3.63
2022-10-14T11:43:51.686Z,3.95
2022-10-14T11:46:27.696Z,3.78
2022-10-14T11:49:04.124Z,5.70
2022-10-14T11:51:44.015Z,3.72
2022-10-14T11:54:25.093Z,4.28
2022-10-14T11:57:23.914Z,3.92
2022-10-14T12:00:32.631Z,3.42
2022-10-14T12:03:19.784Z,4.32
2022-10-14T12:05:55.642Z,2.80
2022-10-14T12:09:44.027Z,2.85
2022-10-14T12:12:26.484Z,3.08
2022-10-14T12:15:10.917Z,2.83
2022-10-14T12:17:46.414Z,3.15
2022-10-14T12:20:27.520Z,3.40
2022-10-14T12:23:00.575Z,2.72
2022-10-14T12:25:52.501Z,3.88
2022-10-14T12:28:24.009Z,3.13
2022-10-14T12:30:52.552Z,3.42
2022-10-14T12:33:29.944Z,3.33
2022-10-14T12:36:04.444Z,3.63
2022-10-14T12:38:48.475Z,3.85
2022-10-14T12:41:37.269Z,3.03
2022-10-14T12:44:25.326Z,3.70
2022-10-14T12:46:54.448Z,3.13
2022-10-14T12:49:25.514Z,4.95
2022-10-14T12:52:23.095Z,3.28
2022-10-14T12:57:26.481Z,2.83
2022-10-14T12:59:56.511Z,3.63
2022-10-14T13:02:32.658Z,3.20
2022-10-14T13:05:07.564Z,3.45
2022-10-14T13:08:20.088Z,3.22
2022-10-14T13:11:00.395Z,3.22
2022-10-14T13:13:52.706Z,3.38
2022-10-14T13:16:29.664Z,3.15
2022-10-14T13:18:59.453Z,3.15
2022-10-14T13:21:52.118Z,3.50
2022-10-14T13:24:29.837Z,3.47
2022-10-14T13:27:22.676Z,3.10
2022-10-14T13:30:09.684Z,2.95
2022-10-14T13:32:52.678Z,4.65
2022-10-14T13:35:37.682Z,2.75
2022-10-14T13:38:12.480Z,3.20
2022-10-14T13:40:58.557Z,3.00
2022-10-14T13:43:28.843Z,3.63
2022-10-14T13:46:03.948Z,3.03
2022-10-14T13:48:47.965Z,3.10
2022-10-14T13:51:40.666Z,2.85
2022-10-14T13:54:25.986Z,3.33
2022-10-14T13:57:34.686Z,2.80
2022-10-14T14:02:56.712Z,2.38
2022-10-14T14:06:07.142Z,2.22
2022-10-14T14:09:01.652Z,2.05
2022-10-14T14:11:39.353Z,1.95
2022-10-14T14:14:17.624Z,2.17
2022-10-14T14:16:54.611Z,2.92
2022-10-14T14:19:34.351Z,2.03
2022-10-14T14:22:14.357Z,2.30
2022-10-14T14:24:42.718Z,2.35
2022-10-14T14:27:15.935Z,2.35
2022-10-14T14:29:48.190Z,1.90
2022-10-14T14:32:36.412Z,2.92
2022-10-14T14:35:12.111Z,2.65
2022-10-14T14:37:55.176Z,2.63
2022-10-14T14:40:31.212Z,2.35
2022-10-14T14:43:02.199Z,2.40
2022-10-14T14:45:43.976Z,2.50
2022-10-14T14:48:14.077Z,2.63
2022-10-14T14:50:44.130Z,2.25
2022-10-14T14:53:21.196Z,2.95
2022-10-14T14:56:00.446Z,3.10
2022-10-14T14:58:30.364Z,3.00
2022-10-14T15:00:59.322Z,2.75
2022-10-14T15:03:31.630Z,2.40
2022-10-14T15:06:05.768Z,2.35
2022-10-14T15:08:41.508Z,2.30
2022-10-14T15:11:11.022Z,2.70
2022-10-14T15:13:38.693Z,2.42
2022-10-14T15:18:41.060Z,2.97
2022-10-14T15:21:11.745Z,2.70
2022-10-14T15:23:42.867Z,3.58
2022-10-14T15:26:38.362Z,3.47
2022-10-14T15:29:16.975Z,2.60
2022-10-14T15:32:14.946Z,2.90
2022-10-14T15:34:46.656Z,2.80
2022-10-14T15:37:14.748Z,2.88
2022-10-14T15:40:03.594Z,3.22
2022-10-14T15:42:32.089Z,2.95
2022-10-14T15:44:59.927Z,2.92
2022-10-14T15:47:29.504Z,3.15
2022-10-14T15:49:57.618Z,3.15
2022-10-14T15:52:27.039Z,3.55
2022-10-14T15:55:02.050Z,3.03
2022-10-14T15:57:30.943Z,3.10
2022-10-14T15:59:59.050Z,3.33
2022-10-14T16:02:36.091Z,3.13
2022-10-14T16:05:20.896Z,3.17
2022-10-14T16:07:55.975Z,3.72
2022-10-14T16:10:32.070Z,3.17
2022-10-14T16:13:06.761Z,3.42
2022-10-14T16:16:02.400Z,3.40
2022-10-14T16:18:39.796Z,3.50
2022-10-14T16:21:17.498Z,3.30
2022-10-14T16:23:54.990Z,3.88
2022-10-14T16:29:50.846Z,3.13
2022-10-14T16:33:03.167Z,3.45
2022-10-14T16:35:37.056Z,3.58
2022-10-14T16:38:11.992Z,4.22
2022-10-14T16:40:47.035Z,3.50
2022-10-14T16:43:18.386Z,3.08
2022-10-14T16:49:02.897Z,3.28
2022-10-14T16:51:39.629Z,3.50
2022-10-14T16:54:20.720Z,3.53
2022-10-14T16:57:07.029Z,3.83
2022-10-14T17:02:56.626Z,3.40
2022-10-14T17:05:46.814Z,4.30
2022-10-14T17:08:30.385Z,3.75
2022-10-14T17:14:30.448Z,3.85
2022-10-14T17:17:29.505Z,4.03
2022-10-14T17:20:08.502Z,4.30
2022-10-14T17:22:37.114Z,4.72
2022-10-14T17:25:05.446Z,4.38
2022-10-14T17:27:33.311Z,4.75
2022-10-14T17:30:01.294Z,6.40
2022-10-14T17:32:33.620Z,7.07
2022-10-14T17:35:01.345Z,8.15
2022-10-14T17:37:40.760Z,7.15
2022-10-14T17:40:20.961Z,5.80
2022-10-14T17:45:47.473Z,4.53
2022-10-14T17:48:17.770Z,3.42
2022-10-14T17:50:48.864Z,3.47
2022-10-14T17:53:20.611Z,3.38
2022-10-14T17:55:49.314Z,3.28
2022-10-14T17:58:18.423Z,3.20
2022-10-14T18:00:49.691Z,2.20
2022-10-14T18:03:18.576Z,2.03
2022-10-14T18:05:53.116Z,1.98
2022-10-14T18:08:20.950Z,2.33
2022-10-14T18:10:52.400Z,2.15
2022-10-14T18:13:23.438Z,2.85
2022-10-14T18:15:51.523Z,2.25
2022-10-14T18:18:19.223Z,2.60
2022-10-14T18:20:47.084Z,2.90
2022-10-14T18:23:15.093Z,2.72
2022-10-14T18:25:42.863Z,2.75
2022-10-14T18:28:11.410Z,2.92
2022-10-14T18:30:39.409Z,3.50
2022-10-14T18:33:07.111Z,4.20
2022-10-14T18:35:34.878Z,4.30
2022-10-14T18:38:02.655Z,3.22
2022-10-14T18:40:30.575Z,3.40
2022-10-14T18:42:59.720Z,3.42
2022-10-14T18:45:27.547Z,3.20
2022-10-14T18:47:55.413Z,3.55
2022-10-14T18:50:23.087Z,3.17
2022-10-14T18:52:52.480Z,3.35
2022-10-14T18:55:20.129Z,3.58
2022-10-14T18:57:47.925Z,3.58
2022-10-14T19:00:18.209Z,3.58
2022-10-14T19:02:46.096Z,3.50
2022-10-14T19:05:14.336Z,3.90
2022-10-14T19:07:42.038Z,3.70
2022-10-14T19:10:10.144Z,3.83
2022-10-14T19:12:43.669Z,4.00
2022-10-14T19:15:12.698Z,4.35
2022-10-14T19:17:41.472Z,3.83
2022-10-14T19:20:16.144Z,4.00
2022-10-14T19:22:45.750Z,3.67
2022-10-14T19:25:13.640Z,4.28
2022-10-14T19:27:41.264Z,4.82
2022-10-14T19:30:09.868Z,3.92
2022-10-14T19:32:37.948Z,3.95
2022-10-14T19:35:06.246Z,4.68
2022-10-14T19:37:37.016Z,4.07
2022-10-14T19:40:05.414Z,3.92
2022-10-14T19:42:34.541Z,4.25
2022-10-14T19:45:03.473Z,4.15
2022-10-14T19:47:31.481Z,4.55
2022-10-14T19:49:59.163Z,4.93
2022-10-14T19:52:27.122Z,4.30
2022-10-14T19:54:54.778Z,6.10
2022-10-14T19:57:22.653Z,8.02
2022-10-14T19:59:50.690Z,5.97
2022-10-14T20:02:19.891Z,7.25
2022-10-14T20:04:47.676Z,7.13
2022-10-14T20:07:16.030Z,6.75
2022-10-14T20:09:43.952Z,7.32
2022-10-14T20:12:12.751Z,7.72
2022-10-14T20:14:40.386Z,7.63
2022-10-14T20:17:08.135Z,7.95
2022-10-14T20:19:37.963Z,7.75
2022-10-14T20:22:05.869Z,7.50
2022-10-14T20:24:33.625Z,6.78
2022-10-14T20:27:01.343Z,6.25
2022-10-14T20:29:29.247Z,6.15
2022-10-14T20:31:57.119Z,6.13
2022-10-14T20:34:25.523Z,5.75
2022-10-14T20:36:53.585Z,5.57
2022-10-14T20:39:21.879Z,5.10
2022-10-14T20:41:50.428Z,6.30
2022-10-14T20:44:25.231Z,5.55
2022-10-14T20:46:52.928Z,5.68
2022-10-14T20:49:21.029Z,5.57
2022-10-14T20:51:54.686Z,5.30
2022-10-14T20:54:24.984Z,5.72
2022-10-14T20:56:57.786Z,5.13
2022-10-14T20:59:29.189Z,5.15
2022-10-14T21:01:58.979Z,4.60
2022-10-14T21:04:26.720Z,5.75
2022-10-14T21:06:54.733Z,6.30
2022-10-14T21:09:23.580Z,6.15
2022-10-14T21:11:51.450Z,6.18
2022-10-14T21:14:19.886Z,5.95
2022-10-14T21:16:47.899Z,5.50
2022-10-14T21:19:15.810Z,5.38
2022-10-14T21:21:49.302Z,5.68
2022-10-14T21:24:19.390Z,6.50
2022-10-14T21:26:56.338Z,5.30
2022-10-14T21:29:26.251Z,5.78
2022-10-14T21:31:56.451Z,6.15
2022-10-14T21:34:28.424Z,6.15
2022-10-14T21:36:56.928Z,5.30
2022-10-14T21:39:24.896Z,5.43
2022-10-14T21:41:53.212Z,5.75
2022-10-14T21:44:21.593Z,5.95
2022-10-14T21:46:49.831Z,5.88
2022-10-14T21:49:18.323Z,5.50
2022-10-14T21:51:47.188Z,5.07
2022-10-14T21:54:15.267Z,6.82
2022-10-14T21:56:45.416Z,5.90
2022-10-14T22:01:42.162Z,4.65
2022-10-14T22:04:13.820Z,5.88
2022-10-14T22:06:44.411Z,5.18
2022-10-14T22:11:41.169Z,4.35
2022-10-14T22:14:15.481Z,5.55
2022-10-14T22:16:50.749Z,6.25
2022-10-14T22:19:18.731Z,5.57
2022-10-14T22:21:46.551Z,5.97
2022-10-14T22:24:14.722Z,5.38
2022-10-14T22:26:46.443Z,5.75
2022-10-14T22:29:16.674Z,5.15
2022-10-14T22:31:45.811Z,6.25
2022-10-14T22:34:24.112Z,5.75
2022-10-14T22:36:53.604Z,5.93
2022-10-14T22:39:21.407Z,5.80
2022-10-14T22:41:49.803Z,6.78
2022-10-14T22:44:17.610Z,7.65
2022-10-14T22:46:46.346Z,6.60
2022-10-14T22:49:14.270Z,6.13
2022-10-14T22:51:43.928Z,6.40
2022-10-14T22:54:12.113Z,6.05
2022-10-14T22:56:40.011Z,5.95
2022-10-14T22:59:10.958Z,5.57
2022-10-14T23:01:41.067Z,5.50
2022-10-14T23:04:10.180Z,4.90
2022-10-14T23:06:39.563Z,5.30
2022-10-14T23:09:07.652Z,4.90
2022-10-14T23:11:35.817Z,5.15
2022-10-14T23:14:07.046Z,5.13
2022-10-14T23:19:04.240Z,4.43
2022-10-14T23:21:34.985Z,5.63
2022-10-14T23:26:37.251Z,5.30
2022-10-14T23:29:09.058Z,4.90
2022-10-14T23:31:39.349Z,5.18
2022-10-14T23:34:12.782Z,5.47
2022-10-14T23:36:41.180Z,5.55
2022-10-14T23:39:09.490Z,5.18
2022-10-14T23:41:37.393Z,5.55
2022-10-14T23:44:05.248Z,5.15
2022-10-14T23:46:33.094Z,5.05
2022-10-14T23:49:13.941Z,6.05
2022-10-14T23:51:49.766Z,5.25
2022-10-14T23:54:17.456Z,7.13
2022-10-14T23:56:45.901Z,5.82
2022-10-14T23:59:13.960Z,7.10
